createdAt,value
2023-05-03T00:00:17.908Z,6.54
2023-05-03T00:02:45.020Z,6.54
2023-05-03T00:05:17.936Z,6.52
2023-05-03T00:07:46.753Z,6.49
2023-05-03T00:10:16.385Z,6.46
2023-05-03T00:12:43.976Z,6.43
2023-05-03T00:15:11.351Z,6.38
2023-05-03T00:17:38.270Z,6.37
2023-05-03T00:20:05.953Z,6.36
2023-05-03T00:22:32.768Z,6.35
2023-05-03T00:25:00.063Z,6.32
2023-05-03T00:27:26.708Z,6.28
2023-05-03T00:29:53.405Z,6.24
2023-05-03T00:32:23.297Z,6.25
2023-05-03T00:34:55.021Z,6.25
2023-05-03T00:37:21.961Z,6.18
2023-05-03T00:39:48.848Z,6.10
2023-05-03T00:42:15.981Z,5.98
2023-05-03T00:44:42.633Z,5.91
2023-05-03T00:47:09.727Z,5.85
2023-05-03T00:49:37.096Z,5.78
2023-05-03T00:52:03.779Z,5.68
2023-05-03T00:54:30.689Z,5.63
2023-05-03T00:56:57.806Z,5.58
2023-05-03T00:59:24.893Z,5.56
2023-05-03T01:01:53.367Z,5.52
2023-05-03T01:04:21.749Z,5.44
2023-05-03T01:06:59.363Z,5.36
2023-05-03T01:09:49.261Z,5.31
2023-05-03T01:12:30.699Z,5.26
2023-05-03T01:15:24.570Z,5.23
2023-05-03T01:17:58.201Z,5.21
2023-05-03T01:20:31.004Z,5.20
2023-05-03T01:23:05.354Z,5.19
2023-05-03T01:25:32.814Z,5.18
2023-05-03T01:27:59.915Z,5.16
2023-05-03T01:30:28.824Z,5.17
2023-05-03T01:33:21.434Z,5.15
2023-05-03T01:35:54.509Z,5.12
2023-05-03T01:38:22.582Z,5.10
2023-05-03T01:40:52.598Z,5.05
2023-05-03T01:43:20.963Z,5.09
2023-05-03T01:45:48.055Z,5.07
2023-05-03T01:48:16.984Z,5.07
2023-05-03T01:50:44.450Z,5.10
2023-05-03T01:53:11.100Z,5.12
2023-05-03T01:55:37.798Z,5.17
2023-05-03T01:58:04.462Z,5.20
2023-05-03T02:00:31.252Z,5.22
2023-05-03T02:03:00.576Z,5.29
2023-05-03T02:05:27.347Z,5.33
2023-05-03T02:07:53.985Z,5.36
2023-05-03T02:10:20.752Z,5.41
2023-05-03T02:12:47.368Z,5.41
2023-05-03T02:15:14.285Z,5.41
2023-05-03T02:17:42.759Z,5.40
2023-05-03T02:20:12.706Z,5.40
2023-05-03T02:22:39.473Z,5.35
2023-05-03T02:25:06.903Z,5.33
2023-05-03T02:27:33.616Z,5.30
2023-05-03T02:30:01.403Z,5.29
2023-05-03T02:32:28.504Z,5.27
2023-05-03T02:34:55.586Z,5.23
2023-05-03T02:37:22.328Z,5.23
2023-05-03T02:39:48.999Z,5.21
2023-05-03T02:42:16.218Z,5.20
2023-05-03T02:44:42.952Z,5.19
2023-05-03T02:47:10.539Z,5.19
2023-05-03T02:49:37.222Z,5.18
2023-05-03T02:52:04.055Z,5.20
2023-05-03T02:54:31.417Z,5.23
2023-05-03T02:56:58.081Z,5.23
2023-05-03T02:59:24.755Z,5.23
2023-05-03T03:01:51.468Z,5.25
2023-05-03T03:04:18.168Z,5.22
2023-05-03T03:06:44.927Z,5.20
2023-05-03T03:09:12.614Z,5.18
2023-05-03T03:11:39.304Z,5.16
2023-05-03T03:14:06.133Z,5.13
2023-05-03T03:16:32.933Z,5.09
2023-05-03T03:18:59.728Z,5.02
2023-05-03T03:21:26.810Z,4.94
2023-05-03T03:23:53.420Z,4.92
2023-05-03T03:26:20.074Z,4.91
2023-05-03T03:28:46.711Z,4.93
2023-05-03T03:31:13.596Z,4.92
2023-05-03T03:33:40.388Z,4.94
2023-05-03T03:36:07.956Z,4.93
2023-05-03T03:38:34.647Z,4.96
2023-05-03T03:41:01.571Z,4.96
2023-05-03T03:43:28.369Z,4.93
2023-05-03T03:45:54.986Z,4.95
2023-05-03T03:48:21.597Z,4.95
2023-05-03T03:50:48.282Z,4.96
2023-05-03T03:53:14.954Z,5.01
2023-05-03T03:55:41.726Z,5.04
2023-05-03T03:58:08.879Z,5.06
2023-05-03T04:00:38.240Z,5.04
2023-05-03T04:03:07.587Z,5.03
2023-05-03T04:05:34.929Z,5.03
2023-05-03T04:08:01.607Z,5.05
2023-05-03T04:10:28.271Z,5.03
2023-05-03T04:12:55.701Z,5.02
2023-05-03T04:15:22.334Z,4.99
2023-05-03T04:17:49.638Z,5.01
2023-05-03T04:20:17.853Z,5.00
2023-05-03T04:22:44.502Z,5.01
2023-05-03T04:25:19.822Z,5.03
2023-05-03T04:27:47.478Z,5.09
2023-05-03T04:30:15.581Z,5.12
2023-05-03T04:32:42.858Z,5.16
2023-05-03T04:35:10.936Z,5.18
2023-05-03T04:37:38.164Z,5.19
2023-05-03T04:40:08.644Z,5.25
2023-05-03T04:42:36.381Z,5.29
2023-05-03T04:45:03.943Z,5.32
2023-05-03T04:47:30.993Z,5.36
2023-05-03T04:49:57.704Z,5.40
2023-05-03T04:52:25.727Z,5.38
2023-05-03T04:54:52.582Z,5.38
2023-05-03T04:57:19.364Z,5.36
2023-05-03T04:59:46.145Z,5.39
2023-05-03T05:02:12.774Z,5.40
2023-05-03T05:04:39.860Z,5.43
2023-05-03T05:07:06.725Z,5.43
2023-05-03T05:09:33.387Z,5.41
2023-05-03T05:12:00.104Z,5.41
2023-05-03T05:14:28.433Z,5.42
2023-05-03T05:16:55.167Z,5.49
2023-05-03T05:19:21.869Z,5.56
2023-05-03T05:21:48.584Z,5.60
2023-05-03T05:24:15.358Z,5.65
2023-05-03T05:26:43.300Z,5.65
2023-05-03T05:29:10.788Z,5.68
2023-05-03T05:31:37.522Z,5.73
2023-05-03T05:34:04.301Z,5.75
2023-05-03T05:36:31.171Z,5.78
2023-05-03T05:38:57.848Z,5.76
2023-05-03T05:41:24.761Z,5.77
2023-05-03T05:43:51.591Z,5.78
2023-05-03T05:46:21.170Z,5.85
2023-05-03T05:48:47.996Z,5.92
2023-05-03T05:51:14.659Z,5.97
2023-05-03T05:53:41.382Z,5.99
2023-05-03T05:56:08.739Z,6.01
2023-05-03T05:58:37.579Z,6.10
2023-05-03T06:01:04.985Z,6.22
2023-05-03T06:03:32.073Z,6.19
2023-05-03T06:05:58.770Z,6.14
2023-05-03T06:08:25.916Z,6.14
2023-05-03T06:10:53.244Z,6.20
2023-05-03T06:13:20.037Z,6.26
2023-05-03T06:15:46.696Z,6.32
2023-05-03T06:18:13.468Z,6.43
2023-05-03T06:20:40.303Z,6.46
2023-05-03T06:23:06.930Z,6.51
2023-05-03T06:25:33.664Z,6.60
2023-05-03T06:28:00.465Z,6.73
2023-05-03T06:30:28.771Z,6.83
2023-05-03T06:32:55.572Z,6.92
2023-05-03T06:35:22.310Z,6.89
2023-05-03T06:37:49.601Z,6.90
2023-05-03T06:40:16.384Z,6.93
2023-05-03T06:42:43.024Z,7.02
2023-05-03T06:45:10.115Z,7.10
2023-05-03T06:47:37.290Z,7.21
2023-05-03T06:50:05.000Z,7.26
2023-05-03T06:52:32.023Z,7.25
2023-05-03T06:54:58.663Z,7.27
2023-05-03T06:57:27.042Z,7.35
2023-05-03T06:59:55.433Z,7.48
2023-05-03T07:02:22.747Z,7.52
2023-05-03T07:04:49.658Z,7.56
2023-05-03T07:07:16.605Z,7.59
2023-05-03T07:09:44.052Z,7.64
2023-05-03T07:12:11.290Z,7.71
2023-05-03T07:14:39.693Z,7.80
2023-05-03T07:17:06.717Z,7.83
2023-05-03T07:19:33.422Z,7.88
2023-05-03T07:22:00.198Z,7.99
2023-05-03T07:24:26.830Z,8.07
2023-05-03T07:26:53.937Z,8.11
2023-05-03T07:29:21.132Z,8.11
2023-05-03T07:31:47.902Z,8.17
2023-05-03T07:34:15.310Z,8.23
2023-05-03T07:36:42.220Z,8.32
2023-05-03T07:39:08.897Z,8.49
2023-05-03T07:41:35.665Z,8.74
2023-05-03T07:44:02.322Z,9.09
2023-05-03T07:46:29.205Z,9.33
2023-05-03T07:48:55.865Z,9.38
2023-05-03T07:51:22.726Z,9.41
2023-05-03T07:53:49.351Z,9.31
2023-05-03T07:56:16.080Z,9.17
2023-05-03T07:58:43.801Z,8.98
2023-05-03T08:01:13.532Z,8.95
2023-05-03T08:03:40.684Z,8.91
2023-05-03T08:06:08.405Z,8.91
2023-05-03T08:08:36.601Z,9.02
2023-05-03T08:11:03.309Z,9.08
2023-05-03T08:13:29.950Z,9.08
2023-05-03T08:15:56.825Z,9.10
2023-05-03T08:18:23.918Z,9.11
2023-05-03T08:20:50.772Z,9.07
2023-05-03T08:23:17.922Z,9.04
2023-05-03T08:25:45.481Z,9.13
2023-05-03T08:28:12.286Z,9.27
2023-05-03T08:30:39.220Z,9.29
2023-05-03T08:33:06.229Z,9.23
2023-05-03T08:35:32.997Z,9.33
2023-05-03T08:37:59.607Z,9.41
2023-05-03T08:40:28.329Z,9.45
2023-05-03T08:42:56.932Z,9.55
2023-05-03T08:45:23.820Z,9.59
2023-05-03T08:47:56.463Z,9.55
2023-05-03T08:50:24.435Z,9.52
2023-05-03T08:52:51.287Z,9.62
2023-05-03T08:55:18.181Z,9.73
2023-05-03T08:57:44.859Z,9.73
2023-05-03T09:00:13.013Z,9.81
2023-05-03T09:02:40.453Z,9.82
2023-05-03T09:05:16.427Z,9.85
2023-05-03T09:08:06.587Z,9.91
2023-05-03T09:10:37.043Z,10.02
2023-05-03T09:13:04.065Z,10.21
2023-05-03T09:15:31.294Z,10.37
2023-05-03T09:18:06.910Z,10.50
2023-05-03T09:20:38.458Z,10.71
2023-05-03T09:23:06.848Z,10.97
2023-05-03T09:25:45.944Z,11.21
2023-05-03T09:28:17.457Z,11.34
2023-05-03T09:30:45.207Z,11.33
2023-05-03T09:33:12.282Z,11.26
2023-05-03T09:35:39.343Z,11.34
2023-05-03T09:38:06.325Z,11.45
2023-05-03T09:40:33.250Z,11.47
2023-05-03T09:43:11.609Z,11.58
2023-05-03T09:45:39.097Z,11.43
2023-05-03T09:48:07.395Z,11.30
2023-05-03T09:50:35.818Z,11.25
2023-05-03T09:53:04.634Z,11.38
2023-05-03T09:55:38.629Z,11.67
2023-05-03T09:58:07.764Z,11.74
2023-05-03T10:00:43.994Z,11.73
2023-05-03T10:03:12.875Z,11.82
2023-05-03T10:05:47.132Z,12.03
2023-05-03T10:08:27.755Z,12.29
2023-05-03T10:10:54.635Z,12.35
2023-05-03T10:13:23.266Z,12.31
2023-05-03T10:15:56.713Z,12.22
2023-05-03T10:18:27.598Z,12.35
2023-05-03T10:21:01.355Z,12.45
2023-05-03T10:23:28.112Z,12.18
2023-05-03T10:26:11.760Z,12.04
2023-05-03T10:28:38.423Z,12.12
2023-05-03T10:31:05.523Z,12.40
2023-05-03T10:33:35.259Z,12.73
2023-05-03T10:36:13.444Z,12.78
2023-05-03T10:38:40.234Z,12.68
2023-05-03T10:41:07.206Z,12.88
2023-05-03T10:43:33.832Z,13.19
2023-05-03T10:46:06.043Z,13.41
2023-05-03T10:48:34.049Z,13.38
2023-05-03T10:51:38.865Z,13.43
2023-05-03T10:54:05.577Z,13.38
2023-05-03T10:56:32.217Z,13.14
2023-05-03T10:58:59.123Z,13.23
2023-05-03T11:01:27.453Z,13.49
2023-05-03T11:04:13.969Z,13.56
2023-05-03T11:06:41.671Z,13.72
2023-05-03T11:09:10.452Z,13.51
2023-05-03T11:11:40.139Z,13.07
2023-05-03T11:14:11.617Z,12.73
2023-05-03T11:16:47.318Z,12.74
2023-05-03T11:19:14.911Z,12.63
2023-05-03T11:21:42.658Z,12.61
2023-05-03T11:24:09.982Z,12.63
2023-05-03T11:26:39.577Z,12.73
2023-05-03T11:29:06.486Z,12.73
2023-05-03T11:31:33.236Z,12.75
2023-05-03T11:33:59.923Z,12.53
2023-05-03T11:36:28.018Z,12.32
2023-05-03T11:38:54.853Z,12.24
2023-05-03T11:41:21.687Z,12.42
2023-05-03T11:43:57.561Z,12.67
2023-05-03T11:46:34.075Z,12.99
2023-05-03T11:49:02.791Z,13.16
2023-05-03T11:51:31.417Z,13.20
2023-05-03T11:54:13.014Z,13.27
2023-05-03T11:56:48.710Z,13.15
2023-05-03T11:59:17.322Z,13.05
2023-05-03T12:01:43.937Z,13.06
2023-05-03T12:04:13.005Z,13.24
2023-05-03T12:06:40.988Z,13.45
2023-05-03T12:09:15.741Z,13.49
2023-05-03T12:11:44.573Z,13.64
2023-05-03T12:14:11.918Z,13.85
2023-05-03T12:16:53.440Z,14.08
2023-05-03T12:19:28.184Z,14.20
2023-05-03T12:22:18.212Z,14.25
2023-05-03T12:24:45.482Z,14.21
2023-05-03T12:27:14.289Z,13.99
2023-05-03T12:29:42.061Z,13.87
2023-05-03T12:32:10.424Z,13.92
2023-05-03T12:34:41.424Z,14.13
2023-05-03T12:37:11.853Z,14.17
2023-05-03T12:39:40.064Z,14.27
2023-05-03T12:42:15.160Z,14.37
2023-05-03T12:44:43.093Z,14.46
2023-05-03T12:47:11.126Z,14.52
2023-05-03T12:49:39.194Z,14.67
2023-05-03T12:52:35.559Z,14.73
2023-05-03T12:54:55.687Z,14.69
2023-05-03T12:57:23.980Z,14.63
2023-05-03T12:59:54.949Z,14.60
2023-05-03T13:04:59.649Z,14.21
2023-05-03T13:07:30.477Z,14.27
2023-05-03T13:12:29.142Z,14.22
2023-05-03T13:14:55.973Z,14.20
2023-05-03T13:17:23.375Z,14.09
2023-05-03T13:19:51.414Z,14.11
2023-05-03T13:22:18.768Z,14.18
2023-05-03T13:24:47.154Z,14.10
2023-05-03T13:27:14.414Z,14.11
2023-05-03T13:29:41.775Z,14.06
2023-05-03T13:32:09.594Z,14.10
2023-05-03T13:34:36.956Z,14.34
2023-05-03T13:37:06.572Z,14.65
2023-05-03T13:39:33.212Z,14.85
2023-05-03T13:41:59.968Z,14.75
2023-05-03T13:44:26.648Z,14.62
2023-05-03T13:46:53.636Z,14.40
2023-05-03T13:49:20.805Z,13.98
2023-05-03T13:51:47.715Z,13.57
2023-05-03T13:54:14.470Z,13.39
2023-05-03T13:56:43.059Z,13.26
2023-05-03T13:59:13.893Z,13.16
2023-05-03T14:01:41.344Z,12.98
2023-05-03T14:04:08.364Z,12.88
2023-05-03T14:06:35.116Z,12.87
2023-05-03T14:09:02.806Z,12.91
2023-05-03T14:11:30.903Z,12.98
2023-05-03T14:13:58.730Z,13.00
2023-05-03T14:18:57.259Z,12.92
2023-05-03T14:21:24.624Z,12.89
2023-05-03T14:23:51.293Z,12.88
2023-05-03T14:26:19.533Z,12.69
2023-05-03T14:28:46.372Z,12.30
2023-05-03T14:31:13.399Z,12.16
2023-05-03T14:33:40.198Z,12.03
2023-05-03T14:36:10.937Z,12.04
2023-05-03T14:38:37.702Z,12.20
2023-05-03T14:41:04.671Z,12.39
2023-05-03T14:43:32.507Z,12.75
2023-05-03T14:45:59.238Z,13.20
2023-05-03T14:48:26.230Z,13.41
2023-05-03T14:50:54.306Z,13.50
2023-05-03T14:53:21.931Z,13.75
2023-05-03T14:55:48.677Z,13.94
2023-05-03T14:58:15.855Z,14.08
2023-05-03T15:00:43.457Z,14.10
2023-05-03T15:03:12.132Z,14.16
2023-05-03T15:05:46.571Z,14.02
2023-05-03T15:08:19.312Z,13.93
2023-05-03T15:10:46.733Z,13.78
2023-05-03T15:13:14.518Z,13.63
2023-05-03T15:15:45.898Z,13.18
2023-05-03T15:18:14.652Z,12.97
2023-05-03T15:20:41.601Z,13.00
2023-05-03T15:23:08.286Z,13.07
2023-05-03T15:25:35.650Z,13.05
2023-05-03T15:28:04.447Z,13.03
2023-05-03T15:30:33.001Z,13.00
2023-05-03T15:33:01.087Z,12.99
2023-05-03T15:35:28.086Z,13.00
2023-05-03T15:37:54.786Z,13.03
2023-05-03T15:40:23.717Z,13.05
2023-05-03T15:42:51.982Z,13.04
2023-05-03T15:45:19.124Z,12.99
2023-05-03T15:47:46.336Z,12.91
2023-05-03T15:50:13.910Z,12.84
2023-05-03T15:52:41.226Z,12.79
2023-05-03T15:55:09.519Z,12.79
2023-05-03T15:57:36.232Z,12.67
2023-05-03T16:00:06.583Z,12.37
2023-05-03T16:02:33.498Z,12.07
2023-05-03T16:05:00.274Z,11.81
2023-05-03T16:07:26.963Z,11.52
2023-05-03T16:09:53.636Z,11.22
2023-05-03T16:12:20.254Z,10.91
2023-05-03T16:14:47.153Z,10.75
2023-05-03T16:17:13.946Z,10.63
2023-05-03T16:19:40.686Z,10.55
2023-05-03T16:22:07.617Z,10.39
2023-05-03T16:24:35.053Z,10.27
2023-05-03T16:27:04.793Z,10.22
2023-05-03T16:29:33.533Z,10.36
2023-05-03T16:32:00.632Z,10.54
2023-05-03T16:34:27.901Z,10.73
2023-05-03T16:36:54.584Z,10.79
2023-05-03T16:39:21.362Z,10.85
2023-05-03T16:41:48.011Z,10.84
2023-05-03T16:44:18.426Z,10.74
2023-05-03T16:46:46.041Z,10.55
2023-05-03T16:49:12.724Z,10.38
2023-05-03T16:51:40.895Z,10.28
2023-05-03T16:54:07.562Z,10.24
2023-05-03T16:56:34.272Z,10.18
2023-05-03T16:59:01.275Z,9.97
2023-05-03T17:01:28.020Z,9.78
2023-05-03T17:03:54.785Z,9.64
2023-05-03T17:06:21.492Z,9.60
2023-05-03T17:08:48.108Z,9.58
2023-05-03T17:11:15.066Z,9.56
2023-05-03T17:13:42.289Z,9.48
2023-05-03T17:16:11.289Z,9.48
2023-05-03T17:18:40.446Z,9.49
2023-05-03T17:21:08.476Z,9.46
2023-05-03T17:23:37.900Z,9.48
2023-05-03T17:26:06.872Z,9.51
2023-05-03T17:28:33.605Z,9.46
2023-05-03T17:31:01.143Z,9.37
2023-05-03T17:33:27.801Z,9.38
2023-05-03T17:35:55.858Z,9.49
2023-05-03T17:38:23.414Z,9.69
2023-05-03T17:40:50.092Z,9.93
2023-05-03T17:43:17.803Z,10.16
2023-05-03T17:45:47.391Z,10.34
2023-05-03T17:48:14.825Z,10.44
2023-05-03T17:50:43.189Z,10.48
2023-05-03T17:53:09.915Z,10.53
2023-05-03T17:55:38.370Z,10.59
2023-05-03T17:58:06.345Z,10.68
2023-05-03T18:00:33.733Z,10.75
2023-05-03T18:03:00.932Z,10.81
2023-05-03T18:05:28.053Z,10.82
2023-05-03T18:07:54.790Z,10.82
2023-05-03T18:10:22.325Z,10.69
2023-05-03T18:12:49.212Z,10.44
2023-05-03T18:15:16.169Z,10.33
2023-05-03T18:17:43.440Z,10.37
2023-05-03T18:20:10.638Z,10.35
2023-05-03T18:22:37.762Z,10.33
2023-05-03T18:25:07.453Z,10.24
2023-05-03T18:27:37.597Z,10.14
2023-05-03T18:30:07.007Z,9.92
2023-05-03T18:32:34.799Z,9.69
2023-05-03T18:35:02.568Z,9.48
2023-05-03T18:37:29.544Z,9.31
2023-05-03T18:39:56.191Z,9.07
2023-05-03T18:42:23.178Z,8.83
2023-05-03T18:44:49.856Z,8.71
2023-05-03T18:47:20.792Z,8.63
2023-05-03T18:50:01.261Z,8.53
2023-05-03T18:52:27.937Z,8.48
2023-05-03T18:54:54.648Z,8.47
2023-05-03T18:57:21.762Z,8.45
2023-05-03T18:59:59.367Z,8.43
2023-05-03T19:02:30.693Z,8.27
2023-05-03T19:04:58.229Z,8.07
2023-05-03T19:07:25.214Z,7.93
2023-05-03T19:09:58.036Z,7.85
2023-05-03T19:12:24.660Z,7.79
2023-05-03T19:14:51.465Z,7.73
2023-05-03T19:17:18.189Z,7.68
2023-05-03T19:19:45.107Z,7.67
2023-05-03T19:22:11.789Z,7.53
2023-05-03T19:24:39.844Z,7.38
2023-05-03T19:27:06.505Z,7.30
2023-05-03T19:29:33.155Z,7.27
2023-05-03T19:31:59.867Z,7.25
2023-05-03T19:34:28.015Z,7.21
2023-05-03T19:36:54.817Z,7.17
2023-05-03T19:39:21.480Z,7.13
2023-05-03T19:41:48.934Z,7.10
2023-05-03T19:44:16.058Z,7.05
2023-05-03T19:46:42.812Z,7.01
2023-05-03T19:49:09.498Z,6.98
2023-05-03T19:51:36.117Z,6.96
2023-05-03T19:54:03.345Z,6.89
2023-05-03T19:56:30.073Z,6.85
2023-05-03T19:58:57.203Z,6.73
2023-05-03T20:01:23.976Z,6.63
2023-05-03T20:03:53.448Z,6.55
2023-05-03T20:06:20.557Z,6.50
2023-05-03T20:08:47.273Z,6.48
2023-05-03T20:11:14.013Z,6.45
2023-05-03T20:13:40.698Z,6.45
2023-05-03T20:16:08.324Z,6.45
2023-05-03T20:18:35.176Z,6.43
2023-05-03T20:21:02.651Z,6.42
2023-05-03T20:23:29.496Z,6.43
2023-05-03T20:25:56.256Z,6.46
2023-05-03T20:28:23.235Z,6.48
2023-05-03T20:30:49.986Z,6.51
2023-05-03T20:33:16.670Z,6.55
2023-05-03T20:35:44.536Z,6.58
2023-05-03T20:38:11.505Z,6.58
2023-05-03T20:40:38.389Z,6.60
2023-05-03T20:43:05.054Z,6.59
2023-05-03T20:45:31.961Z,6.56
2023-05-03T20:47:58.764Z,6.53
2023-05-03T20:50:25.477Z,6.51
2023-05-03T20:52:52.139Z,6.49
2023-05-03T20:55:19.002Z,6.36
2023-05-03T20:57:45.868Z,6.31
2023-05-03T21:00:13.294Z,6.26
2023-05-03T21:02:40.025Z,6.27
2023-05-03T21:05:07.103Z,6.27
2023-05-03T21:07:33.720Z,6.29
2023-05-03T21:10:00.572Z,6.33
2023-05-03T21:12:27.310Z,6.36
2023-05-03T21:14:53.954Z,6.39
2023-05-03T21:17:20.593Z,6.38
2023-05-03T21:19:47.251Z,6.36
2023-05-03T21:22:13.893Z,6.34
2023-05-03T21:24:40.527Z,6.34
2023-05-03T21:27:07.169Z,6.31
2023-05-03T21:29:33.828Z,6.29
2023-05-03T21:32:00.788Z,6.25
2023-05-03T21:34:27.534Z,6.17
2023-05-03T21:36:54.187Z,6.05
2023-05-03T21:39:21.576Z,5.95
2023-05-03T21:41:48.377Z,5.91
2023-05-03T21:44:15.118Z,5.89
2023-05-03T21:46:44.622Z,5.87
2023-05-03T21:49:11.932Z,5.84
2023-05-03T21:51:38.601Z,5.79
2023-05-03T21:54:05.380Z,5.73
2023-05-03T21:56:32.163Z,5.68
2023-05-03T21:58:58.852Z,5.66
2023-05-03T22:01:25.597Z,5.64
2023-05-03T22:03:53.241Z,5.66
2023-05-03T22:06:20.077Z,5.66
2023-05-03T22:08:46.697Z,5.64
2023-05-03T22:11:13.643Z,5.59
2023-05-03T22:13:54.482Z,5.60
2023-05-03T22:16:25.941Z,5.61
2023-05-03T22:18:52.734Z,5.54
2023-05-03T22:21:19.377Z,5.45
2023-05-03T22:23:46.136Z,5.39
2023-05-03T22:26:12.795Z,5.35
2023-05-03T22:28:39.446Z,5.35
2023-05-03T22:31:06.341Z,5.32
2023-05-03T22:33:33.085Z,5.32
2023-05-03T22:35:59.730Z,5.32
2023-05-03T22:38:26.368Z,5.33
2023-05-03T22:40:53.041Z,5.32
2023-05-03T22:43:19.796Z,5.33
2023-05-03T22:45:47.227Z,5.33
2023-05-03T22:48:14.023Z,5.22
2023-05-03T22:50:40.677Z,5.06
2023-05-03T22:53:07.361Z,5.00
2023-05-03T22:55:34.061Z,4.99
2023-05-03T22:58:01.102Z,5.01
2023-05-03T23:00:28.163Z,5.04
2023-05-03T23:02:54.937Z,5.08
2023-05-03T23:05:21.946Z,5.06
2023-05-03T23:07:48.780Z,5.10
2023-05-03T23:10:15.501Z,5.13
2023-05-03T23:12:42.255Z,5.01
2023-05-03T23:15:09.236Z,4.90
2023-05-03T23:17:35.973Z,4.88
2023-05-03T23:20:03.092Z,4.90
2023-05-03T23:22:29.999Z,4.90
2023-05-03T23:24:56.743Z,4.91
2023-05-03T23:27:23.796Z,4.92
2023-05-03T23:29:51.079Z,4.94
2023-05-03T23:32:18.411Z,4.94
2023-05-03T23:34:45.726Z,4.97
2023-05-03T23:37:12.387Z,4.93
2023-05-03T23:39:43.963Z,4.78
2023-05-03T23:42:12.013Z,4.47
2023-05-03T23:44:53.680Z,4.27
2023-05-03T23:47:21.576Z,4.29
2023-05-03T23:49:48.302Z,4.36
2023-05-03T23:52:17.033Z,4.45
2023-05-03T23:54:43.760Z,4.51
2023-05-03T23:57:10.561Z,4.56
2023-05-03T23:59:37.951Z,4.58
